Time;durP1;ratioP1;P1;durP2;ratioP2;P2;SDS_P1;SDS_P2;PMS_P1;PMS_P2;Temp;Humidity;BMP_temperature;BMP_pressure;BME280_temperature;BME280_humidity;BME280_pressure;Samples;Min_cycle;Max_cycle;Signal;HPM_P1;HPM_P2
2020/12/08 00:00:24;;;;;;;1.80;1.60;;;21.00;44.00;;;;;;1469950;96;21754;-32
2020/12/08 00:02:51;;;;;;;1.90;1.70;;;21.10;43.90;;;;;;1470071;96;21254;-32
2020/12/08 00:05:20;;;;;;;1.98;1.52;;;21.10;43.90;;;;;;1472599;96;21814;-31
2020/12/08 00:07:48;;;;;;;2.47;2.05;;;21.00;43.80;;;;;;1454985;96;21282;-30
2020/12/08 00:10:19;;;;;;;2.00;1.62;;;21.10;43.80;;;;;;1470989;96;21254;-31
2020/12/08 00:12:49;;;;;;;1.62;1.52;;;21.00;43.80;;;;;;1451076;96;21330;-32
2020/12/08 00:15:18;;;;;;;3.00;1.65;;;21.00;43.80;;;;;;1469559;96;21259;-32
2020/12/08 00:17:46;;;;;;;2.20;1.77;;;21.00;43.80;;;;;;1467956;96;21255;-31
2020/12/08 00:20:16;;;;;;;1.92;1.52;;;21.00;43.90;;;;;;1471674;95;21306;-34
2020/12/08 00:22:44;;;;;;;1.80;1.52;;;21.00;43.80;;;;;;1471067;95;21227;-31
2020/12/08 00:25:12;;;;;;;2.12;1.77;;;21.00;43.80;;;;;;1456252;96;21702;-32
2020/12/08 00:27:40;;;;;;;1.80;1.62;;;21.00;43.80;;;;;;1469403;96;22116;-32
2020/12/08 00:30:13;;;;;;;2.50;1.80;;;21.00;43.90;;;;;;1444458;97;21542;-31
2020/12/08 00:32:42;;;;;;;2.12;1.65;;;20.90;43.80;;;;;;1376853;99;21189;-31
2020/12/08 00:35:11;;;;;;;3.05;2.10;;;20.90;43.80;;;;;;1433235;98;21256;-31
2020/12/08 00:37:47;;;;;;;1.72;1.45;;;20.90;43.80;;;;;;1471932;96;21694;-33
2020/12/08 00:40:15;;;;;;;2.05;1.72;;;20.90;43.80;;;;;;1468670;96;21168;-31
2020/12/08 00:42:43;;;;;;;1.50;1.37;;;20.90;43.80;;;;;;1472452;95;21523;-32
2020/12/08 00:45:12;;;;;;;2.50;1.60;;;20.90;43.70;;;;;;1449356;96;21306;-30
2020/12/08 00:47:39;;;;;;;2.62;1.87;;;20.90;44.30;;;;;;1471849;96;21402;-32
2020/12/08 00:50:07;;;;;;;1.98;1.60;;;20.90;43.70;;;;;;1475483;94;21311;-31
2020/12/08 00:52:35;;;;;;;2.42;1.65;;;21.00;43.80;;;;;;1454217;97;21237;-31
2020/12/08 00:55:03;;;;;;;1.60;1.47;;;20.90;43.70;;;;;;1470553;96;21296;-30
2020/12/08 00:57:31;;;;;;;1.82;1.70;;;20.90;43.70;;;;;;1478243;95;21324;-32
2020/12/08 00:59:58;;;;;;;2.08;1.70;;;20.90;43.70;;;;;;1452586;96;21670;-31
2020/12/08 01:02:27;;;;;;;1.62;1.30;;;20.90;43.70;;;;;;1474986;96;21221;-32
2020/12/08 01:04:54;;;;;;;2.10;1.80;;;20.90;43.80;;;;;;1475860;95;21227;-31
2020/12/08 01:07:22;;;;;;;1.98;1.70;;;20.90;43.70;;;;;;1453216;96;21246;-32
2020/12/08 01:09:50;;;;;;;1.92;1.70;;;20.90;43.70;;;;;;1471975;96;21296;-32
2020/12/08 01:12:17;;;;;;;2.60;1.87;;;20.90;43.70;;;;;;1447533;96;21336;-32
2020/12/08 01:14:45;;;;;;;2.65;1.75;;;20.90;43.60;;;;;;1474840;96;21714;-32
2020/12/08 01:17:13;;;;;;;1.40;1.30;;;20.90;43.60;;;;;;1472558;96;21270;-32
2020/12/08 01:19:40;;;;;;;2.05;1.82;;;20.80;43.60;;;;;;1454450;96;21149;-31
2020/12/08 01:22:08;;;;;;;1.57;1.47;;;20.90;43.60;;;;;;1467276;96;21298;-31
2020/12/08 01:24:35;;;;;;;1.60;1.45;;;20.90;43.60;;;;;;1448765;96;21224;-31
2020/12/08 01:27:03;;;;;;;2.45;1.62;;;20.90;43.70;;;;;;1449442;96;21290;-32
2020/12/08 01:29:31;;;;;;;1.52;1.42;;;20.80;43.60;;;;;;1477720;95;21691;-32
2020/12/08 01:31:58;;;;;;;1.50;1.40;;;20.80;43.60;;;;;;1470424;95;21386;-33
2020/12/08 01:34:26;;;;;;;2.35;1.67;;;20.90;43.70;;;;;;1470645;95;21337;-32
2020/12/08 01:36:54;;;;;;;2.08;1.62;;;20.80;43.90;;;;;;1470648;96;21997;-33
2020/12/08 01:39:21;;;;;;;1.35;1.25;;;20.90;43.70;;;;;;1453159;96;21214;-32
2020/12/08 01:41:49;;;;;;;4.08;1.70;;;20.90;43.70;;;;;;1468190;96;21263;-32
2020/12/08 01:44:17;;;;;;;2.08;1.72;;;20.80;43.60;;;;;;1475057;95;21199;-31
2020/12/08 01:46:45;;;;;;;1.77;1.60;;;20.80;43.70;;;;;;1470942;96;21330;-30
2020/12/08 01:49:13;;;;;;;2.08;1.60;;;20.80;43.80;;;;;;1469587;96;21171;-31
2020/12/08 01:51:41;;;;;;;3.58;1.50;;;20.80;43.70;;;;;;1467475;96;21596;-32
2020/12/08 01:54:09;;;;;;;1.90;1.50;;;20.80;43.80;;;;;;1469003;95;21292;-31
2020/12/08 01:56:38;;;;;;;2.55;1.47;;;20.80;43.80;;;;;;1470681;96;21340;-32
2020/12/08 01:59:06;;;;;;;3.47;1.70;;;20.80;43.80;;;;;;1473302;95;21318;-31
2020/12/08 02:01:34;;;;;;;2.75;1.62;;;20.80;43.80;;;;;;1466257;95;21656;-34
2020/12/08 02:04:02;;;;;;;1.60;1.30;;;20.80;43.80;;;;;;1452757;96;22368;-32
2020/12/08 02:06:30;;;;;;;1.65;1.52;;;20.80;43.80;;;;;;1457690;96;21231;-32
2020/12/08 02:08:57;;;;;;;1.80;1.70;;;20.80;43.80;;;;;;1472830;96;21282;-30
2020/12/08 02:11:25;;;;;;;5.50;1.80;;;20.70;43.70;;;;;;1468690;96;21226;-29
2020/12/08 02:13:53;;;;;;;2.77;2.00;;;20.70;43.70;;;;;;1465808;96;21230;-31
2020/12/08 02:16:21;;;;;;;2.15;1.62;;;20.80;43.80;;;;;;1470812;96;21748;-31
2020/12/08 02:18:48;;;;;;;1.65;1.40;;;20.80;43.80;;;;;;1455498;96;21294;-33
2020/12/08 02:21:17;;;;;;;2.65;1.82;;;20.80;43.80;;;;;;1469144;96;21656;-31
2020/12/08 02:23:51;;;;;;;1.77;1.60;;;20.80;43.70;;;;;;1465049;96;21322;-31
2020/12/08 02:26:20;;;;;;;2.02;1.52;;;20.80;43.80;;;;;;1445877;96;21363;-32
2020/12/08 02:28:48;;;;;;;1.98;1.75;;;20.70;43.70;;;;;;1476247;95;21239;-31
2020/12/08 02:31:15;;;;;;;1.72;1.45;;;20.70;43.70;;;;;;1466852;96;21231;-32
2020/12/08 02:33:43;;;;;;;2.65;1.57;;;20.70;43.80;;;;;;1462058;96;21172;-31
2020/12/08 02:36:11;;;;;;;2.20;1.62;;;20.70;43.70;;;;;;1471033;94;21234;-32
2020/12/08 02:38:38;;;;;;;2.67;1.87;;;20.70;43.70;;;;;;1468652;96;21620;-31
2020/12/08 02:41:06;;;;;;;2.12;1.50;;;20.70;43.70;;;;;;1468480;95;21805;-34
2020/12/08 02:43:34;;;;;;;1.65;1.55;;;20.70;43.70;;;;;;1468197;96;21294;-32
2020/12/08 02:46:02;;;;;;;1.98;1.75;;;20.70;43.70;;;;;;1468364;96;21633;-33
2020/12/08 02:48:30;;;;;;;2.92;1.55;;;20.70;43.70;;;;;;1467512;96;21323;-31
2020/12/08 02:50:58;;;;;;;1.82;1.67;;;20.70;43.70;;;;;;1473177;95;21286;-30
2020/12/08 02:53:26;;;;;;;1.60;1.50;;;20.70;43.70;;;;;;1469103;95;21207;-31
2020/12/08 02:55:53;;;;;;;2.12;1.80;;;20.80;43.70;;;;;;1475982;95;21247;-30
2020/12/08 02:58:21;;;;;;;1.60;1.50;;;20.80;43.60;;;;;;1452586;96;21781;-32
2020/12/08 03:00:50;;;;;;;1.40;1.30;;;20.80;43.60;;;;;;1473041;95;21285;-32
2020/12/08 03:03:18;;;;;;;1.82;1.57;;;20.80;43.60;;;;;;1448657;96;21270;-31
2020/12/08 03:05:45;;;;;;;1.87;1.65;;;20.80;43.60;;;;;;1470749;96;21330;-32
2020/12/08 03:08:14;;;;;;;2.80;1.98;;;20.90;43.50;;;;;;1470132;95;21348;-32
2020/12/08 03:10:42;;;;;;;1.75;1.52;;;20.90;43.50;;;;;;1467695;96;22270;-33
2020/12/08 03:13:10;;;;;;;2.25;1.65;;;20.90;43.50;;;;;;1459789;96;21310;-32
2020/12/08 03:15:38;;;;;;;1.52;1.42;;;20.90;43.50;;;;;;1470904;95;21441;-31
2020/12/08 03:18:06;;;;;;;2.25;1.47;;;20.90;43.50;;;;;;1433025;97;21167;-32
2020/12/08 03:20:34;;;;;;;2.00;1.72;;;20.90;43.40;;;;;;1471939;96;21389;-31
2020/12/08 03:23:01;;;;;;;2.22;1.67;;;20.90;43.40;;;;;;1474580;95;21339;-31
2020/12/08 03:25:29;;;;;;;1.45;1.35;;;20.90;43.40;;;;;;1462394;96;21265;-31
2020/12/08 03:27:57;;;;;;;1.35;1.25;;;20.90;43.40;;;;;;1474999;95;21674;-33
2020/12/08 03:30:25;;;;;;;2.05;1.85;;;20.90;43.30;;;;;;1459702;96;21299;-31
2020/12/08 03:32:53;;;;;;;1.90;1.60;;;21.00;43.40;;;;;;1463111;96;21308;-31
2020/12/08 03:35:22;;;;;;;2.92;1.70;;;21.00;43.40;;;;;;1471697;96;21725;-32
2020/12/08 03:37:49;;;;;;;1.72;1.50;;;21.00;43.30;;;;;;1435346;96;21549;-32
2020/12/08 03:40:17;;;;;;;1.50;1.40;;;21.00;43.30;;;;;;1472159;95;21302;-31
2020/12/08 03:42:45;;;;;;;2.00;1.45;;;21.00;43.30;;;;;;1468918;95;21344;-32
2020/12/08 03:45:12;;;;;;;1.72;1.50;;;21.00;43.30;;;;;;1463806;96;21255;-30
2020/12/08 03:47:40;;;;;;;2.92;1.60;;;21.00;43.00;;;;;;1465819;96;22407;-31
2020/12/08 03:50:07;;;;;;;1.87;1.70;;;21.00;43.20;;;;;;1473135;96;21365;-31
2020/12/08 03:52:35;;;;;;;1.98;1.82;;;21.00;43.20;;;;;;1465913;96;21261;-32
2020/12/08 03:55:03;;;;;;;1.60;1.45;;;21.00;43.20;;;;;;1477565;96;21243;-32
2020/12/08 03:57:31;;;;;;;1.80;1.50;;;21.00;43.20;;;;;;1469259;95;21652;-32
2020/12/08 03:59:59;;;;;;;1.65;1.55;;;21.00;43.20;;;;;;1470881;96;21655;-32
2020/12/08 04:02:26;;;;;;;1.72;1.50;;;21.10;43.20;;;;;;1469247;96;21174;-31
2020/12/08 04:04:54;;;;;;;2.15;1.65;;;21.10;43.20;;;;;;1457702;96;21673;-32
2020/12/08 04:07:22;;;;;;;2.15;1.52;;;21.00;43.20;;;;;;1484880;95;21305;-30
2020/12/08 04:09:49;;;;;;;1.75;1.62;;;21.10;43.20;;;;;;1469501;95;21778;-32
2020/12/08 04:12:17;;;;;;;1.98;1.77;;;21.10;43.20;;;;;;1464418;96;21165;-31
2020/12/08 04:14:45;;;;;;;2.25;1.62;;;21.10;43.20;;;;;;1469874;95;21269;-31
2020/12/08 04:17:20;;;;;;;2.40;1.57;;;21.10;43.20;;;;;;1471866;96;21345;-32
2020/12/08 04:19:48;;;;;;;1.70;1.50;;;21.10;43.20;;;;;;1461700;96;21247;-33
2020/12/08 04:22:15;;;;;;;2.15;1.45;;;21.10;43.20;;;;;;1473789;95;21239;-34
2020/12/08 04:24:43;;;;;;;1.72;1.62;;;21.10;43.20;;;;;;1478637;96;21287;-35
2020/12/08 04:27:11;;;;;;;1.65;1.50;;;21.10;43.10;;;;;;1470322;96;21755;-32
2020/12/08 04:29:38;;;;;;;1.55;1.45;;;21.10;43.10;;;;;;1460061;96;21208;-34
2020/12/08 04:32:06;;;;;;;1.52;1.42;;;21.10;43.10;;;;;;1477665;95;21255;-32
2020/12/08 04:34:34;;;;;;;1.92;1.70;;;21.10;43.10;;;;;;1470048;96;21286;-33
2020/12/08 04:37:02;;;;;;;2.27;1.50;;;21.10;43.00;;;;;;1443529;96;21232;-33
2020/12/08 04:39:29;;;;;;;1.65;1.55;;;21.10;43.00;;;;;;1473149;96;21605;-34
2020/12/08 04:41:57;;;;;;;2.10;1.90;;;21.10;43.00;;;;;;1453862;96;21349;-33
2020/12/08 04:44:26;;;;;;;1.70;1.60;;;21.10;43.10;;;;;;1456089;96;21384;-33
2020/12/08 04:46:57;;;;;;;1.60;1.50;;;21.10;43.00;;;;;;1471068;95;21250;-33
2020/12/08 04:49:26;;;;;;;2.22;1.87;;;21.10;43.00;;;;;;1465886;96;21399;-33
2020/12/08 04:51:54;;;;;;;1.60;1.50;;;21.10;43.00;;;;;;1471185;96;21195;-32
2020/12/08 04:54:21;;;;;;;1.60;1.32;;;21.20;43.00;;;;;;1478930;95;21262;-31
2020/12/08 04:56:49;;;;;;;1.75;1.40;;;21.10;43.00;;;;;;1471615;96;21467;-32
2020/12/08 04:59:24;;;;;;;1.70;1.35;;;21.10;43.00;;;;;;1472827;96;21225;-31
2020/12/08 05:01:51;;;;;;;1.95;1.67;;;21.10;43.00;;;;;;1467740;96;21760;-33
2020/12/08 05:04:26;;;;;;;1.87;1.62;;;21.10;42.90;;;;;;1464309;96;21335;-32
2020/12/08 05:07:07;;;;;;;1.92;1.70;;;21.10;43.00;;;;;;1471200;96;21248;-33
2020/12/08 05:09:46;;;;;;;1.98;1.70;;;21.10;42.90;;;;;;1448471;95;67456;-32
2020/12/08 05:12:22;;;;;;;2.35;1.87;;;21.10;43.00;;;;;;1482396;95;22491;-32
2020/12/08 05:14:50;;;;;;;1.67;1.55;;;21.10;42.90;;;;;;1486411;95;22489;-31
2020/12/08 05:17:25;;;;;;;1.80;1.70;;;21.10;42.90;;;;;;1486302;95;21222;-32
2020/12/08 05:20:06;;;;;;;1.62;1.52;;;21.10;42.90;;;;;;1487099;94;21181;-31
2020/12/08 05:22:36;;;;;;;1.57;1.35;;;21.10;42.90;;;;;;1474766;95;67945;-33
2020/12/08 05:25:13;;;;;;;1.52;1.42;;;21.10;42.90;;;;;;1460678;96;21196;-31
2020/12/08 05:27:42;;;;;;;1.40;1.30;;;21.10;42.90;;;;;;1450012;96;21335;-31
2020/12/08 05:30:11;;;;;;;1.67;1.40;;;21.10;42.90;;;;;;1460031;96;22174;-33
2020/12/08 05:32:40;;;;;;;2.85;1.60;;;21.10;43.40;;;;;;1466753;96;21307;-33
2020/12/08 05:35:21;;;;;;;2.83;1.80;;;21.20;42.90;;;;;;1467098;96;21262;-32
2020/12/08 05:37:51;;;;;;;2.12;1.55;;;21.20;42.90;;;;;;1471603;96;21255;-32
2020/12/08 05:40:25;;;;;;;2.30;1.80;;;21.20;42.90;;;;;;1467288;96;21855;-31
2020/12/08 05:42:55;;;;;;;2.40;1.70;;;21.10;42.90;;;;;;1463857;96;21243;-32
2020/12/08 05:45:24;;;;;;;2.00;1.75;;;21.20;43.00;;;;;;1466219;96;21310;-31
2020/12/08 05:47:57;;;;;;;3.15;2.10;;;21.10;42.90;;;;;;1457964;96;21327;-31
2020/12/08 05:50:26;;;;;;;1.62;1.35;;;21.20;42.70;;;;;;1466515;96;21299;-31
2020/12/08 05:52:57;;;;;;;1.57;1.42;;;21.20;42.90;;;;;;1467170;96;21224;-31
2020/12/08 05:55:27;;;;;;;2.65;1.65;;;21.20;42.90;;;;;;1469597;96;21690;-32
2020/12/08 05:57:56;;;;;;;1.70;1.57;;;21.20;42.90;;;;;;1463181;96;21615;-31
2020/12/08 06:00:31;;;;;;;1.82;1.50;;;21.20;42.90;;;;;;1458588;96;21859;-32
2020/12/08 06:03:15;;;;;;;2.33;1.70;;;21.20;42.90;;;;;;1461949;96;21541;-32
2020/12/08 06:05:47;;;;;;;2.77;1.67;;;21.20;42.90;;;;;;1490016;95;68070;-33
2020/12/08 06:08:20;;;;;;;3.27;1.90;;;21.20;42.90;;;;;;1453385;96;21309;-35
2020/12/08 06:10:53;;;;;;;2.12;1.77;;;21.20;43.40;;;;;;1484669;95;21261;-34
2020/12/08 06:13:28;;;;;;;2.10;1.82;;;21.20;42.80;;;;;;1487074;95;21170;-32
2020/12/08 06:15:58;;;;;;;2.95;1.95;;;21.20;42.70;;;;;;1471623;95;21363;-32
2020/12/08 06:18:39;;;;;;;3.52;1.80;;;21.30;42.60;;;;;;1492182;95;21294;-31
2020/12/08 06:21:18;;;;;;;2.05;1.82;;;21.30;42.60;;;;;;1460360;96;67200;-32
2020/12/08 06:23:47;;;;;;;3.37;1.85;;;21.30;42.60;;;;;;1478687;95;68285;-32
2020/12/08 06:26:24;;;;;;;2.20;1.80;;;21.40;42.50;;;;;;1457365;94;21224;-32
2020/12/08 06:28:52;;;;;;;2.55;1.95;;;21.40;42.50;;;;;;1482490;94;21216;-32
2020/12/08 06:31:20;;;;;;;1.98;1.77;;;21.40;42.30;;;;;;1487838;94;22357;-32
2020/12/08 06:33:56;;;;;;;2.65;1.70;;;21.40;42.30;;;;;;1481163;94;21165;-31
2020/12/08 06:36:25;;;;;;;1.75;1.55;;;21.50;42.20;;;;;;1488559;94;21210;-32
2020/12/08 06:39:06;;;;;;;3.75;2.00;;;21.50;42.20;;;;;;1457788;95;21275;-33
2020/12/08 06:41:39;;;;;;;1.70;1.60;;;21.50;42.10;;;;;;1468070;95;67684;-34
2020/12/08 06:44:14;;;;;;;2.08;1.80;;;21.60;42.10;;;;;;1451351;97;21571;-33
2020/12/08 06:46:58;;;;;;;1.92;1.67;;;21.60;42.10;;;;;;1461941;96;22451;-32
2020/12/08 06:49:27;;;;;;;2.47;1.75;;;21.60;42.00;;;;;;1469307;96;67571;-32
2020/12/08 06:51:56;;;;;;;2.87;1.85;;;21.60;42.00;;;;;;1465970;96;21205;-32
2020/12/08 06:54:25;;;;;;;3.00;1.80;;;21.60;42.10;;;;;;1488542;94;21263;-32
2020/12/08 06:57:00;;;;;;;3.17;2.20;;;21.60;42.20;;;;;;1487145;94;21748;-33
2020/12/08 06:59:29;;;;;;;2.12;1.60;;;21.60;42.50;;;;;;1475465;94;21668;-32
2020/12/08 07:01:58;;;;;;;2.85;2.50;;;21.70;42.20;;;;;;1477537;94;21256;-32
2020/12/08 07:04:29;;;;;;;6.72;2.45;;;21.70;42.20;;;;;;1487814;94;21961;-34
2020/12/08 07:07:01;;;;;;;3.67;2.10;;;21.80;42.30;;;;;;1478989;94;21154;-33
2020/12/08 07:09:34;;;;;;;2.15;1.67;;;21.80;42.10;;;;;;1481247;94;21198;-33
2020/12/08 07:12:04;;;;;;;2.58;1.98;;;21.90;42.00;;;;;;1456176;94;21211;-32
2020/12/08 07:14:36;;;;;;;4.00;1.70;;;21.90;42.00;;;;;;1473892;95;21224;-33
2020/12/08 07:17:01;;;;;;;2.55;1.87;;;21.90;41.90;;;;;;1485422;94;21204;-33
2020/12/08 07:19:30;;;;;;;2.50;1.72;;;22.00;42.40;;;;;;1492449;95;21205;-33
2020/12/08 07:21:59;;;;;;;2.75;2.00;;;22.00;42.40;;;;;;1486477;96;21432;-33
2020/12/08 07:24:30;;;;;;;3.20;2.00;;;22.10;41.90;;;;;;1484563;94;21244;-36
2020/12/08 07:27:01;;;;;;;2.95;2.17;;;22.10;41.90;;;;;;1490323;93;21191;-33
2020/12/08 07:29:29;;;;;;;2.47;1.80;;;22.10;41.80;;;;;;1454696;96;21253;-33
2020/12/08 07:31:56;;;;;;;3.30;1.87;;;22.20;41.80;;;;;;1449006;97;21212;-32
2020/12/08 07:34:24;;;;;;;2.20;1.98;;;22.20;42.00;;;;;;1448906;96;21336;-33
2020/12/08 07:36:52;;;;;;;3.02;2.00;;;22.20;41.60;;;;;;1462892;96;21232;-32
2020/12/08 07:39:21;;;;;;;2.00;1.80;;;22.30;41.90;;;;;;1472434;96;21700;-34
2020/12/08 07:41:48;;;;;;;3.40;2.10;;;22.30;42.00;;;;;;1489354;94;21206;-35
2020/12/08 07:44:17;;;;;;;2.72;2.00;;;22.30;42.50;;;;;;1470955;96;22223;-32
2020/12/08 07:46:52;;;;;;;2.60;1.87;;;22.30;41.70;;;;;;1491801;95;21234;-33
2020/12/08 07:49:20;;;;;;;2.42;1.95;;;22.30;41.60;;;;;;1486975;95;22462;-33
2020/12/08 07:51:51;;;;;;;3.22;2.35;;;22.40;42.10;;;;;;1453576;94;21743;-33
2020/12/08 07:54:19;;;;;;;3.05;2.33;;;22.40;41.90;;;;;;1471214;96;21201;-32
2020/12/08 07:56:47;;;;;;;2.52;2.08;;;22.40;41.80;;;;;;1485400;95;21248;-35
2020/12/08 07:59:14;;;;;;;4.53;1.72;;;22.40;41.70;;;;;;1480049;94;21279;-35
2020/12/08 08:01:45;;;;;;;5.97;2.08;;;22.40;42.50;;;;;;1486856;95;21615;-33
2020/12/08 08:04:14;;;;;;;2.80;2.05;;;22.40;41.60;;;;;;1472109;96;21197;-34
2020/12/08 08:06:43;;;;;;;3.08;1.85;;;22.40;41.80;;;;;;1492882;95;21218;-34
2020/12/08 08:09:10;;;;;;;4.25;1.92;;;22.50;42.10;;;;;;1487973;95;21252;-32
2020/12/08 08:11:38;;;;;;;2.15;1.67;;;22.50;41.80;;;;;;1456110;95;22117;-33
2020/12/08 08:14:06;;;;;;;2.25;1.70;;;22.50;42.40;;;;;;1487141;94;21189;-34
2020/12/08 08:16:34;;;;;;;2.10;1.80;;;22.50;41.60;;;;;;1464569;96;21271;-33
2020/12/08 08:19:03;;;;;;;2.15;1.87;;;22.50;41.70;;;;;;1480716;94;21766;-34
2020/12/08 08:21:31;;;;;;;2.50;1.80;;;22.50;42.20;;;;;;1485541;94;21202;-33
2020/12/08 08:23:59;;;;;;;3.67;2.15;;;22.50;42.10;;;;;;1491009;94;21282;-35
2020/12/08 08:26:27;;;;;;;1.92;1.67;;;22.50;41.80;;;;;;1495747;95;21787;-33
2020/12/08 08:28:55;;;;;;;2.47;1.70;;;22.60;41.60;;;;;;1487526;94;21197;-33
2020/12/08 08:31:23;;;;;;;4.10;1.70;;;22.60;41.70;;;;;;1471145;94;21217;-33
2020/12/08 08:33:51;;;;;;;3.80;1.72;;;22.60;41.50;;;;;;1486600;94;21377;-33
2020/12/08 08:36:18;;;;;;;3.08;2.00;;;22.60;41.70;;;;;;1490896;94;21213;-33
2020/12/08 08:38:46;;;;;;;2.27;1.77;;;22.60;42.00;;;;;;1447741;95;22296;-34
2020/12/08 08:41:14;;;;;;;2.87;1.67;;;22.60;41.70;;;;;;1484110;94;21204;-33
2020/12/08 08:43:41;;;;;;;2.85;1.75;;;22.70;41.90;;;;;;1466102;94;21411;-33
2020/12/08 08:46:10;;;;;;;2.10;1.90;;;22.70;41.70;;;;;;1494231;93;21190;-32
2020/12/08 08:48:37;;;;;;;3.40;1.70;;;22.70;41.60;;;;;;1491638;94;21723;-34
2020/12/08 08:51:05;;;;;;;1.55;1.45;;;22.60;41.50;;;;;;1475909;95;21250;-35
2020/12/08 08:53:33;;;;;;;2.05;1.80;;;22.70;41.50;;;;;;1485319;95;21304;-34
2020/12/08 08:56:00;;;;;;;2.42;1.62;;;22.70;41.60;;;;;;1484807;94;21212;-33
2020/12/08 08:58:28;;;;;;;2.25;2.05;;;22.80;42.20;;;;;;1486611;94;21225;-32
2020/12/08 09:00:57;;;;;;;2.62;1.90;;;22.80;41.80;;;;;;1490753;94;22153;-35
2020/12/08 09:03:25;;;;;;;2.08;1.87;;;22.80;41.80;;;;;;1469294;96;21704;-33
2020/12/08 09:05:53;;;;;;;3.33;1.80;;;22.80;42.10;;;;;;1486836;94;21376;-34
2020/12/08 09:08:24;;;;;;;1.57;1.47;;;22.80;42.10;;;;;;1485413;94;21258;-34
2020/12/08 09:10:50;;;;;;;4.12;1.95;;;22.80;41.70;;;;;;1466886;94;21256;-33
2020/12/08 09:13:18;;;;;;;2.12;1.92;;;22.80;41.60;;;;;;1473325;96;21255;-34
2020/12/08 09:15:46;;;;;;;5.15;1.80;;;22.80;41.60;;;;;;1483667;94;22696;-34
2020/12/08 09:18:14;;;;;;;2.77;1.77;;;22.80;41.90;;;;;;1476676;96;21214;-34
2020/12/08 09:20:41;;;;;;;2.27;1.80;;;22.80;41.50;;;;;;1481255;95;21228;-33
2020/12/08 09:23:09;;;;;;;3.00;1.75;;;22.80;41.70;;;;;;1480967;96;21263;-34
2020/12/08 09:25:36;;;;;;;2.98;1.60;;;22.70;41.60;;;;;;1484469;94;21399;-33
2020/12/08 09:28:04;;;;;;;2.02;1.70;;;22.70;41.70;;;;;;1489460;94;21202;-32
2020/12/08 09:30:32;;;;;;;2.10;1.70;;;22.80;41.90;;;;;;1483295;95;21210;-33
2020/12/08 09:32:59;;;;;;;1.75;1.65;;;22.80;42.10;;;;;;1485602;95;21768;-34
2020/12/08 09:35:27;;;;;;;7.90;1.70;;;22.80;41.80;;;;;;1483344;94;21276;-33
2020/12/08 09:37:55;;;;;;;5.28;2.05;;;22.50;52.20;;;;;;1483997;94;21634;-33
2020/12/08 09:40:23;;;;;;;2.22;1.95;;;22.80;46.80;;;;;;1477979;94;21289;-33
2020/12/08 09:42:51;;;;;;;2.35;1.98;;;22.70;47.00;;;;;;1457554;95;21323;-34
2020/12/08 09:45:19;;;;;;;2.62;2.05;;;22.70;46.70;;;;;;1480048;94;21794;-33
2020/12/08 09:47:46;;;;;;;1.98;1.60;;;22.70;46.60;;;;;;1484952;95;21365;-34
2020/12/08 09:50:14;;;;;;;3.92;2.55;;;22.70;47.50;;;;;;1487803;94;22488;-33
2020/12/08 09:52:42;;;;;;;4.22;2.47;;;22.80;46.70;;;;;;1481122;94;21652;-32
2020/12/08 09:55:09;;;;;;;3.12;2.00;;;22.80;46.70;;;;;;1478975;95;21332;-32
2020/12/08 09:57:37;;;;;;;3.05;2.27;;;22.80;46.60;;;;;;1492058;94;21652;-33
2020/12/08 10:00:06;;;;;;;1.75;1.62;;;22.80;46.30;;;;;;1468666;95;21158;-33
2020/12/08 10:02:34;;;;;;;2.80;2.08;;;22.80;46.40;;;;;;1483012;95;21345;-33
2020/12/08 10:05:03;;;;;;;3.05;2.45;;;22.80;46.80;;;;;;1481084;94;21757;-33
2020/12/08 10:07:30;;;;;;;4.60;2.02;;;22.80;46.10;;;;;;1496083;94;21307;-33
2020/12/08 10:09:58;;;;;;;3.17;2.12;;;22.80;46.20;;;;;;1481040;94;22300;-34
2020/12/08 10:12:25;;;;;;;3.22;2.00;;;22.80;45.80;;;;;;1476676;94;21433;-33
2020/12/08 10:14:53;;;;;;;3.62;2.27;;;22.80;45.90;;;;;;1485155;94;21158;-33
2020/12/08 10:17:21;;;;;;;2.22;2.02;;;22.80;46.00;;;;;;1491121;94;21811;-34
2020/12/08 10:19:49;;;;;;;2.30;2.00;;;22.80;45.90;;;;;;1496458;95;21216;-33
2020/12/08 10:22:16;;;;;;;2.72;2.10;;;22.80;45.80;;;;;;1477964;93;21205;-33
2020/12/08 10:24:44;;;;;;;2.08;1.85;;;22.90;46.10;;;;;;1479414;94;21592;-34
2020/12/08 10:27:12;;;;;;;3.95;2.62;;;22.90;46.50;;;;;;1485325;94;21277;-34
2020/12/08 10:29:40;;;;;;;2.95;2.25;;;22.90;45.60;;;;;;1458745;95;21192;-33
2020/12/08 10:32:07;;;;;;;2.47;1.90;;;22.80;45.70;;;;;;1485793;95;21444;-33
2020/12/08 10:34:35;;;;;;;3.08;2.00;;;22.90;45.70;;;;;;1470133;94;21274;-32
2020/12/08 10:37:03;;;;;;;3.22;2.40;;;22.90;45.70;;;;;;1472498;95;21269;-33
2020/12/08 10:39:30;;;;;;;2.42;1.92;;;22.90;45.80;;;;;;1477682;95;21295;-33
2020/12/08 10:41:58;;;;;;;4.03;2.30;;;22.90;45.90;;;;;;1479580;94;21494;-33
2020/12/08 10:44:25;;;;;;;5.58;2.25;;;22.90;45.80;;;;;;1479692;95;21197;-33
2020/12/08 10:46:53;;;;;;;4.10;2.33;;;22.90;45.70;;;;;;1484842;95;21840;-34
2020/12/08 10:49:22;;;;;;;2.47;2.05;;;22.90;45.70;;;;;;1473071;95;21306;-34
2020/12/08 10:51:52;;;;;;;2.67;1.90;;;22.90;45.70;;;;;;1483828;94;21205;-34
2020/12/08 10:54:21;;;;;;;5.50;2.27;;;22.90;45.70;;;;;;1464162;95;21158;-32
2020/12/08 10:56:54;;;;;;;3.55;2.30;;;22.90;45.60;;;;;;1469026;95;21206;-34
2020/12/08 10:59:22;;;;;;;3.85;1.92;;;22.80;45.50;;;;;;1480982;95;21111;-32
2020/12/08 11:01:49;;;;;;;3.67;2.22;;;22.80;45.70;;;;;;1465922;95;22185;-33
2020/12/08 11:04:17;;;;;;;2.65;2.10;;;22.80;45.70;;;;;;1480795;95;21308;-35
2020/12/08 11:06:45;;;;;;;2.50;2.12;;;22.80;45.70;;;;;;1480515;95;21401;-35
2020/12/08 11:09:13;;;;;;;2.40;2.10;;;22.80;45.70;;;;;;1468013;95;21253;-34
2020/12/08 11:11:40;;;;;;;3.15;2.40;;;22.80;45.80;;;;;;1479164;94;21235;-33
2020/12/08 11:14:08;;;;;;;2.70;2.05;;;22.80;45.70;;;;;;1481116;94;21326;-34
2020/12/08 11:16:35;;;;;;;2.67;2.17;;;22.70;45.60;;;;;;1464156;95;21642;-32
2020/12/08 11:19:03;;;;;;;2.30;2.08;;;22.80;45.70;;;;;;1481991;94;21634;-33
2020/12/08 11:21:31;;;;;;;3.72;2.62;;;22.80;45.70;;;;;;1467578;95;21154;-33
2020/12/08 11:23:59;;;;;;;3.17;2.20;;;22.70;45.70;;;;;;1479928;95;21285;-34
2020/12/08 11:26:32;;;;;;;3.37;2.30;;;22.70;45.70;;;;;;1480823;95;21202;-33
2020/12/08 11:28:57;;;;;;;3.50;2.30;;;22.70;45.60;;;;;;1468570;94;21236;-35
2020/12/08 11:31:25;;;;;;;2.87;2.20;;;22.70;45.50;;;;;;1481221;95;21951;-34
2020/12/08 11:33:52;;;;;;;3.10;2.10;;;22.70;45.50;;;;;;1481515;95;21249;-33
2020/12/08 11:36:20;;;;;;;6.12;2.17;;;22.70;45.50;;;;;;1465871;95;21195;-33
2020/12/08 11:38:48;;;;;;;3.22;2.33;;;22.70;45.40;;;;;;1478640;94;21236;-33
2020/12/08 11:41:16;;;;;;;4.35;2.20;;;22.70;45.40;;;;;;1464675;95;21198;-35
2020/12/08 11:43:44;;;;;;;2.98;2.00;;;22.70;45.40;;;;;;1481145;94;21305;-33
2020/12/08 11:46:12;;;;;;;2.70;2.20;;;22.70;45.40;;;;;;1482867;94;21265;-33
2020/12/08 11:48:41;;;;;;;2.40;2.20;;;22.70;45.30;;;;;;1450575;95;21209;-34
2020/12/08 11:51:10;;;;;;;4.00;2.33;;;22.70;45.30;;;;;;1479578;95;21199;-31
2020/12/08 11:53:38;;;;;;;5.70;2.22;;;22.70;45.30;;;;;;1483158;95;21240;-31
2020/12/08 11:56:05;;;;;;;3.33;2.83;;;22.70;45.60;;;;;;1481290;94;21249;-34
2020/12/08 11:58:33;;;;;;;3.35;2.42;;;22.70;45.50;;;;;;1479730;95;21190;-32
2020/12/08 12:01:01;;;;;;;3.80;2.20;;;22.80;45.50;;;;;;1480116;94;21216;-32
2020/12/08 12:03:28;;;;;;;2.90;2.33;;;22.80;45.40;;;;;;1479856;95;21773;-32
2020/12/08 12:05:56;;;;;;;3.17;2.25;;;22.80;45.60;;;;;;1482101;94;21333;-32
2020/12/08 12:08:23;;;;;;;2.55;2.10;;;22.90;45.30;;;;;;1451523;95;21247;-31
2020/12/08 12:10:51;;;;;;;4.87;2.08;;;22.80;45.30;;;;;;1477958;95;21243;-34
2020/12/08 12:13:19;;;;;;;3.35;1.92;;;22.90;45.40;;;;;;1466647;95;21344;-32
2020/12/08 12:15:47;;;;;;;3.45;2.60;;;22.90;45.50;;;;;;1463316;94;21386;-33
2020/12/08 12:18:14;;;;;;;3.45;2.00;;;22.90;45.40;;;;;;1479218;95;21218;-33
2020/12/08 12:20:42;;;;;;;2.40;2.10;;;22.90;45.90;;;;;;1481160;95;21693;-31
2020/12/08 12:23:10;;;;;;;3.62;2.30;;;23.00;45.40;;;;;;1479149;95;21208;-32
2020/12/08 12:25:37;;;;;;;3.55;2.60;;;22.90;45.40;;;;;;1478688;94;21800;-32
2020/12/08 12:28:05;;;;;;;3.50;2.05;;;22.90;45.40;;;;;;1479588;94;21419;-33
2020/12/08 12:30:32;;;;;;;2.70;1.80;;;22.90;45.30;;;;;;1483301;95;21348;-33
2020/12/08 12:33:00;;;;;;;3.35;1.90;;;22.80;45.30;;;;;;1482343;94;21256;-33
2020/12/08 12:35:28;;;;;;;4.25;1.98;;;22.80;45.40;;;;;;1480821;94;21588;-32
2020/12/08 12:37:55;;;;;;;6.50;2.35;;;22.80;45.90;;;;;;1480952;95;21693;-31
2020/12/08 12:40:23;;;;;;;2.05;1.70;;;22.80;45.40;;;;;;1478461;94;21182;-31
2020/12/08 12:42:51;;;;;;;4.00;2.72;;;22.80;45.50;;;;;;1482458;94;21268;-33
2020/12/08 12:45:18;;;;;;;6.12;1.98;;;22.80;45.40;;;;;;1479596;94;21728;-34
2020/12/08 12:47:47;;;;;;;4.65;2.02;;;22.80;45.50;;;;;;1452041;94;21270;-34
2020/12/08 12:50:15;;;;;;;2.22;2.00;;;22.80;45.50;;;;;;1480045;94;21202;-34
2020/12/08 12:52:42;;;;;;;2.95;2.20;;;22.80;45.50;;;;;;1467226;94;21754;-32
2020/12/08 12:55:10;;;;;;;3.02;2.00;;;22.70;45.60;;;;;;1467525;94;21546;-33